sensor_id;sensor_type;location;lat;lon;timestamp;pressure;altitude;pressure_sealevel;temperature;humidity
54455;BME280;40364;52.270;10.546;2024-02-16T00:01:20;100330.56;;;30.55;31.30
54455;BME280;40364;52.270;10.546;2024-02-16T00:03:55;100354.38;;;30.46;31.47
54455;BME280;40364;52.270;10.546;2024-02-16T00:06:25;100331.53;;;30.10;31.81
54455;BME280;40364;52.270;10.546;2024-02-16T00:08:58;100355.00;;;30.51;31.56
54455;BME280;40364;52.270;10.546;2024-02-16T00:11:28;100357.03;;;30.26;31.90
54455;BME280;40364;52.270;10.546;2024-02-16T00:13:55;100341.22;;;29.61;32.11
54455;BME280;40364;52.270;10.546;2024-02-16T00:16:34;100340.31;;;30.48;31.44
54455;BME280;40364;52.270;10.546;2024-02-16T00:19:05;100348.81;;;30.76;31.19
54455;BME280;40364;52.270;10.546;2024-02-16T00:21:32;100333.03;;;29.87;31.36
54455;BME280;40364;52.270;10.546;2024-02-16T00:24:07;100320.41;;;30.69;30.88
54455;BME280;40364;52.270;10.546;2024-02-16T00:26:37;100341.91;;;29.98;31.63
54455;BME280;40364;52.270;10.546;2024-02-16T00:29:29;100317.03;;;30.46;31.03
54455;BME280;40364;52.270;10.546;2024-02-16T00:32:17;100305.72;;;30.01;31.71
54455;BME280;40364;52.270;10.546;2024-02-16T00:35:02;100299.81;;;30.04;31.05
54455;BME280;40364;52.270;10.546;2024-02-16T00:41:07;100325.31;;;30.11;31.13
54455;BME280;40364;52.270;10.546;2024-02-16T00:43:34;100294.78;;;28.80;32.53
54455;BME280;40364;52.270;10.546;2024-02-16T00:46:04;100315.94;;;29.93;31.72
54455;BME280;40364;52.270;10.546;2024-02-16T00:48:39;100313.78;;;28.96;32.86
54455;BME280;40364;52.270;10.546;2024-02-16T00:51:09;100319.34;;;29.36;32.25
54455;BME280;40364;52.270;10.546;2024-02-16T00:53:39;100293.25;;;29.34;32.11
54455;BME280;40364;52.270;10.546;2024-02-16T00:56:09;100308.69;;;29.19;31.94
54455;BME280;40364;52.270;10.546;2024-02-16T00:58:45;100287.44;;;29.71;31.39
54455;BME280;40364;52.270;10.546;2024-02-16T01:01:12;100286.06;;;28.26;33.06
54455;BME280;40364;52.270;10.546;2024-02-16T01:03:47;100296.22;;;27.87;34.25
54455;BME280;40364;52.270;10.546;2024-02-16T01:06:27;100277.13;;;28.73;32.97
54455;BME280;40364;52.270;10.546;2024-02-16T01:08:53;100305.69;;;28.45;33.13
54455;BME280;40364;52.270;10.546;2024-02-16T01:11:21;100300.78;;;28.06;33.52
54455;BME280;40364;52.270;10.546;2024-02-16T01:13:57;100274.78;;;29.96;31.37
54455;BME280;40364;52.270;10.546;2024-02-16T01:16:26;100269.81;;;29.08;31.66
54455;BME280;40364;52.270;10.546;2024-02-16T01:19:05;100279.22;;;30.06;31.15
54455;BME280;40364;52.270;10.546;2024-02-16T01:21:32;100273.75;;;30.50;30.21
54455;BME280;40364;52.270;10.546;2024-02-16T01:24:02;100258.47;;;29.60;31.52
54455;BME280;40364;52.270;10.546;2024-02-16T01:26:33;100269.50;;;29.43;31.97
54455;BME280;40364;52.270;10.546;2024-02-16T01:29:00;100248.16;;;27.50;33.89
54455;BME280;40364;52.270;10.546;2024-02-16T01:31:27;100260.00;;;28.33;32.96
54455;BME280;40364;52.270;10.546;2024-02-16T01:33:54;100254.78;;;26.82;34.90
54455;BME280;40364;52.270;10.546;2024-02-16T01:36:25;100226.66;;;28.08;33.46
54455;BME280;40364;52.270;10.546;2024-02-16T01:38:52;100222.38;;;27.72;33.23
54455;BME280;40364;52.270;10.546;2024-02-16T01:41:21;100235.59;;;27.48;34.29
54455;BME280;40364;52.270;10.546;2024-02-16T01:43:51;100242.13;;;26.92;34.62
54455;BME280;40364;52.270;10.546;2024-02-16T01:46:18;100243.94;;;26.77;35.46
54455;BME280;40364;52.270;10.546;2024-02-16T01:48:48;100235.84;;;25.77;37.29
54455;BME280;40364;52.270;10.546;2024-02-16T01:51:20;100207.00;;;27.79;33.99
54455;BME280;40364;52.270;10.546;2024-02-16T01:53:54;100222.19;;;27.14;34.82
54455;BME280;40364;52.270;10.546;2024-02-16T01:56:24;100233.19;;;26.34;35.62
54455;BME280;40364;52.270;10.546;2024-02-16T01:58:52;100220.16;;;26.33;35.69
54455;BME280;40364;52.270;10.546;2024-02-16T02:01:19;100229.16;;;27.35;34.04
54455;BME280;40364;52.270;10.546;2024-02-16T02:03:46;100237.78;;;27.44;34.24
54455;BME280;40364;52.270;10.546;2024-02-16T02:06:14;100227.28;;;26.63;34.83
54455;BME280;40364;52.270;10.546;2024-02-16T02:08:40;100236.59;;;26.41;35.69
54455;BME280;40364;52.270;10.546;2024-02-16T02:11:13;100216.22;;;27.83;33.80
54455;BME280;40364;52.270;10.546;2024-02-16T02:13:40;100226.78;;;26.42;35.07
54455;BME280;40364;52.270;10.546;2024-02-16T02:16:08;100207.34;;;26.50;35.65
54455;BME280;40364;52.270;10.546;2024-02-16T02:18:36;100238.47;;;27.04;34.21
54455;BME280;40364;52.270;10.546;2024-02-16T02:21:03;100233.16;;;26.46;35.70
54455;BME280;40364;52.270;10.546;2024-02-16T02:23:31;100225.84;;;26.45;36.12
54455;BME280;40364;52.270;10.546;2024-02-16T02:26:01;100216.38;;;26.48;35.40
54455;BME280;40364;52.270;10.546;2024-02-16T02:28:28;100226.69;;;27.02;34.30
54455;BME280;40364;52.270;10.546;2024-02-16T02:30:55;100213.47;;;27.70;33.53
54455;BME280;40364;52.270;10.546;2024-02-16T02:33:24;100215.03;;;26.02;35.96
54455;BME280;40364;52.270;10.546;2024-02-16T02:35:51;100218.28;;;25.66;36.34
54455;BME280;40364;52.270;10.546;2024-02-16T02:38:18;100207.63;;;26.05;35.57
54455;BME280;40364;52.270;10.546;2024-02-16T02:40:46;100192.56;;;26.86;35.01
54455;BME280;40364;52.270;10.546;2024-02-16T02:43:16;100190.66;;;25.09;37.33
54455;BME280;40364;52.270;10.546;2024-02-16T02:45:44;100200.09;;;24.77;37.98
54455;BME280;40364;52.270;10.546;2024-02-16T02:48:11;100187.84;;;25.22;37.90
54455;BME280;40364;52.270;10.546;2024-02-16T02:50:38;100189.53;;;25.06;37.56
54455;BME280;40364;52.270;10.546;2024-02-16T02:53:05;100161.78;;;25.87;36.48
54455;BME280;40364;52.270;10.546;2024-02-16T02:55:34;100199.19;;;26.61;34.73
54455;BME280;40364;52.270;10.546;2024-02-16T02:58:04;100199.84;;;26.65;35.43
54455;BME280;40364;52.270;10.546;2024-02-16T03:00:31;100183.66;;;27.28;34.13
54455;BME280;40364;52.270;10.546;2024-02-16T03:03:00;100185.69;;;26.14;35.52
54455;BME280;40364;52.270;10.546;2024-02-16T03:05:28;100168.50;;;27.71;32.87
54455;BME280;40364;52.270;10.546;2024-02-16T03:07:55;100183.22;;;27.07;33.75
54455;BME280;40364;52.270;10.546;2024-02-16T03:10:26;100181.19;;;28.10;32.80
54455;BME280;40364;52.270;10.546;2024-02-16T03:13:07;100183.50;;;28.52;31.98
54455;BME280;40364;52.270;10.546;2024-02-16T03:15:38;100147.78;;;28.16;32.09
54455;BME280;40364;52.270;10.546;2024-02-16T03:18:06;100187.25;;;28.12;32.24
54455;BME280;40364;52.270;10.546;2024-02-16T03:20:41;100171.56;;;28.90;31.36
54455;BME280;40364;52.270;10.546;2024-02-16T03:23:22;100184.28;;;29.67;29.98
54455;BME280;40364;52.270;10.546;2024-02-16T03:25:58;100182.00;;;29.80;30.06
54455;BME280;40364;52.270;10.546;2024-02-16T03:28:31;100177.75;;;29.67;30.17
54455;BME280;40364;52.270;10.546;2024-02-16T03:30:59;100172.38;;;28.72;31.28
54455;BME280;40364;52.270;10.546;2024-02-16T03:33:30;100165.34;;;28.45;30.87
54455;BME280;40364;52.270;10.546;2024-02-16T03:36:04;100178.72;;;28.58;31.47
54455;BME280;40364;52.270;10.546;2024-02-16T03:38:31;100180.91;;;28.26;31.31
54455;BME280;40364;52.270;10.546;2024-02-16T03:40:58;100163.63;;;27.49;32.15
54455;BME280;40364;52.270;10.546;2024-02-16T03:44:03;100174.88;;;28.33;31.52
54455;BME280;40364;52.270;10.546;2024-02-16T03:46:36;100169.81;;;27.48;32.53
54455;BME280;40364;52.270;10.546;2024-02-16T03:49:06;100176.66;;;28.67;30.81
54455;BME280;40364;52.270;10.546;2024-02-16T03:51:35;100170.78;;;28.89;30.28
54455;BME280;40364;52.270;10.546;2024-02-16T03:54:06;100178.09;;;28.90;30.37
54455;BME280;40364;52.270;10.546;2024-02-16T03:56:34;100176.81;;;29.00;30.34
54455;BME280;40364;52.270;10.546;2024-02-16T03:59:02;100168.94;;;29.79;29.96
54455;BME280;40364;52.270;10.546;2024-02-16T04:01:30;100172.69;;;28.74;30.31
54455;BME280;40364;52.270;10.546;2024-02-16T04:03:57;100164.38;;;28.30;31.10
54455;BME280;40364;52.270;10.546;2024-02-16T04:06:24;100159.22;;;28.07;31.08
54455;BME280;40364;52.270;10.546;2024-02-16T04:08:50;100152.59;;;27.39;32.29
54455;BME280;40364;52.270;10.546;2024-02-16T04:11:17;100161.19;;;28.46;30.69
54455;BME280;40364;52.270;10.546;2024-02-16T04:13:43;100159.63;;;28.55;30.40
54455;BME280;40364;52.270;10.546;2024-02-16T04:16:11;100148.81;;;28.86;30.67
54455;BME280;40364;52.270;10.546;2024-02-16T04:18:38;100153.56;;;28.34;31.03
54455;BME280;40364;52.270;10.546;2024-02-16T04:21:05;100154.03;;;28.24;30.68
54455;BME280;40364;52.270;10.546;2024-02-16T04:23:32;100160.28;;;27.91;31.45
54455;BME280;40364;52.270;10.546;2024-02-16T04:25:58;100151.69;;;27.82;31.25
54455;BME280;40364;52.270;10.546;2024-02-16T04:28:25;100161.03;;;27.11;31.95
54455;BME280;40364;52.270;10.546;2024-02-16T04:30:51;100155.38;;;27.21;32.34
54455;BME280;40364;52.270;10.546;2024-02-16T04:33:20;100150.16;;;27.59;32.53
54455;BME280;40364;52.270;10.546;2024-02-16T04:35:46;100145.88;;;27.02;32.72
54455;BME280;40364;52.270;10.546;2024-02-16T04:38:15;100145.84;;;25.64;34.30
54455;BME280;40364;52.270;10.546;2024-02-16T04:40:42;100142.53;;;25.65;34.74
54455;BME280;40364;52.270;10.546;2024-02-16T04:43:09;100144.38;;;26.06;34.17
54455;BME280;40364;52.270;10.546;2024-02-16T04:45:37;100149.78;;;25.92;34.18
54455;BME280;40364;52.270;10.546;2024-02-16T04:48:04;100150.88;;;26.07;34.21
54455;BME280;40364;52.270;10.546;2024-02-16T04:50:33;100133.19;;;27.34;32.80
54455;BME280;40364;52.270;10.546;2024-02-16T04:53:00;100141.94;;;26.30;33.53
54455;BME280;40364;52.270;10.546;2024-02-16T04:55:28;100139.94;;;26.53;33.46
54455;BME280;40364;52.270;10.546;2024-02-16T04:57:55;100150.91;;;26.76;32.79
54455;BME280;40364;52.270;10.546;2024-02-16T05:00:22;100140.28;;;26.98;32.62
54455;BME280;40364;52.270;10.546;2024-02-16T05:02:50;100148.59;;;27.36;32.53
54455;BME280;40364;52.270;10.546;2024-02-16T05:05:18;100138.03;;;27.55;31.72
54455;BME280;40364;52.270;10.546;2024-02-16T05:07:48;100142.06;;;29.07;30.00
54455;BME280;40364;52.270;10.546;2024-02-16T05:10:15;100143.88;;;28.68;29.87
54455;BME280;40364;52.270;10.546;2024-02-16T05:12:42;100140.81;;;28.26;30.13
54455;BME280;40364;52.270;10.546;2024-02-16T05:15:09;100140.19;;;28.22;30.65
54455;BME280;40364;52.270;10.546;2024-02-16T05:17:38;100136.56;;;27.72;30.88
54455;BME280;40364;52.270;10.546;2024-02-16T05:20:09;100140.22;;;28.40;30.77
54455;BME280;40364;52.270;10.546;2024-02-16T05:22:40;100137.78;;;28.11;30.56
54455;BME280;40364;52.270;10.546;2024-02-16T05:25:09;100147.59;;;29.29;29.69
54455;BME280;40364;52.270;10.546;2024-02-16T05:27:36;100143.97;;;29.20;29.06
54455;BME280;40364;52.270;10.546;2024-02-16T05:30:04;100135.97;;;29.33;29.45
54455;BME280;40364;52.270;10.546;2024-02-16T05:32:33;100136.84;;;29.57;28.96
54455;BME280;40364;52.270;10.546;2024-02-16T05:35:00;100137.34;;;29.56;28.64
54455;BME280;40364;52.270;10.546;2024-02-16T05:37:30;100140.06;;;29.50;28.63
54455;BME280;40364;52.270;10.546;2024-02-16T05:39:57;100140.44;;;29.34;28.58
54455;BME280;40364;52.270;10.546;2024-02-16T05:42:35;100142.25;;;30.21;28.56
54455;BME280;40364;52.270;10.546;2024-02-16T05:45:02;100143.16;;;29.70;28.36
54455;BME280;40364;52.270;10.546;2024-02-16T05:47:29;100142.72;;;29.63;28.44
54455;BME280;40364;52.270;10.546;2024-02-16T05:49:55;100138.94;;;29.47;28.73
54455;BME280;40364;52.270;10.546;2024-02-16T05:52:23;100149.75;;;28.65;29.48
54455;BME280;40364;52.270;10.546;2024-02-16T05:54:50;100143.72;;;28.72;29.67
54455;BME280;40364;52.270;10.546;2024-02-16T05:57:18;100143.72;;;28.72;29.46
54455;BME280;40364;52.270;10.546;2024-02-16T05:59:46;100142.13;;;28.89;29.68
54455;BME280;40364;52.270;10.546;2024-02-16T06:02:14;100136.91;;;27.12;31.42
54455;BME280;40364;52.270;10.546;2024-02-16T06:04:41;100137.63;;;28.24;30.55
54455;BME280;40364;52.270;10.546;2024-02-16T06:07:08;100131.41;;;27.58;30.68
54455;BME280;40364;52.270;10.546;2024-02-16T06:09:36;100124.28;;;27.32;31.17
54455;BME280;40364;52.270;10.546;2024-02-16T06:12:04;100125.91;;;27.73;31.16
54455;BME280;40364;52.270;10.546;2024-02-16T06:14:38;100122.69;;;28.84;29.50
54455;BME280;40364;52.270;10.546;2024-02-16T06:17:20;100119.00;;;28.74;29.83
54455;BME280;40364;52.270;10.546;2024-02-16T06:19:47;100132.84;;;27.63;30.88
54455;BME280;40364;52.270;10.546;2024-02-16T06:22:14;100124.34;;;26.88;32.00
54455;BME280;40364;52.270;10.546;2024-02-16T06:24:41;100121.53;;;26.97;31.83
54455;BME280;40364;52.270;10.546;2024-02-16T06:27:08;100131.31;;;27.40;31.13
54455;BME280;40364;52.270;10.546;2024-02-16T06:29:34;100132.03;;;27.00;31.82
54455;BME280;40364;52.270;10.546;2024-02-16T06:32:01;100131.38;;;27.18;31.73
54455;BME280;40364;52.270;10.546;2024-02-16T06:34:29;100138.16;;;27.11;32.62
54455;BME280;40364;52.270;10.546;2024-02-16T06:36:56;100140.56;;;27.13;31.81
54455;BME280;40364;52.270;10.546;2024-02-16T06:39:23;100145.47;;;27.12;31.64
54455;BME280;40364;52.270;10.546;2024-02-16T06:41:49;100135.84;;;26.97;31.58
54455;BME280;40364;52.270;10.546;2024-02-16T06:44:16;100136.25;;;27.79;30.83
54455;BME280;40364;52.270;10.546;2024-02-16T06:46:43;100136.31;;;28.16;30.54
54455;BME280;40364;52.270;10.546;2024-02-16T06:49:10;100129.38;;;27.37;31.53
54455;BME280;40364;52.270;10.546;2024-02-16T06:51:38;100140.22;;;28.40;30.50
54455;BME280;40364;52.270;10.546;2024-02-16T06:54:05;100150.53;;;27.39;31.10
54455;BME280;40364;52.270;10.546;2024-02-16T06:56:32;100151.94;;;29.15;29.03
54455;BME280;40364;52.270;10.546;2024-02-16T06:59:01;100154.72;;;29.52;28.60
54455;BME280;40364;52.270;10.546;2024-02-16T07:01:28;100159.59;;;29.09;28.93
54455;BME280;40364;52.270;10.546;2024-02-16T07:03:54;100154.00;;;29.15;28.77
54455;BME280;40364;52.270;10.546;2024-02-16T07:06:21;100166.75;;;29.98;27.75
54455;BME280;40364;52.270;10.546;2024-02-16T07:08:50;100168.19;;;30.03;28.28
54455;BME280;40364;52.270;10.546;2024-02-16T07:11:17;100162.50;;;28.73;29.05
54455;BME280;40364;52.270;10.546;2024-02-16T07:13:46;100156.84;;;28.14;29.97
54455;BME280;40364;52.270;10.546;2024-02-16T07:16:12;100155.03;;;27.80;30.45
54455;BME280;40364;52.270;10.546;2024-02-16T07:18:39;100155.78;;;27.72;30.48
54455;BME280;40364;52.270;10.546;2024-02-16T07:21:07;100155.31;;;27.73;30.56
54455;BME280;40364;52.270;10.546;2024-02-16T07:23:34;100157.78;;;27.00;31.88
54455;BME280;40364;52.270;10.546;2024-02-16T07:26:02;100151.22;;;27.22;32.16
54455;BME280;40364;52.270;10.546;2024-02-16T07:28:29;100150.66;;;26.83;32.06
54455;BME280;40364;52.270;10.546;2024-02-16T07:30:57;100152.97;;;27.50;31.11
54455;BME280;40364;52.270;10.546;2024-02-16T07:33:23;100144.13;;;28.06;30.19
54455;BME280;40364;52.270;10.546;2024-02-16T07:35:53;100152.16;;;27.90;29.97
54455;BME280;40364;52.270;10.546;2024-02-16T07:38:20;100160.59;;;28.42;29.54
54455;BME280;40364;52.270;10.546;2024-02-16T07:40:47;100160.75;;;28.66;29.64
54455;BME280;40364;52.270;10.546;2024-02-16T07:43:17;100153.56;;;28.62;30.28
54455;BME280;40364;52.270;10.546;2024-02-16T07:45:44;100151.81;;;28.37;30.18
54455;BME280;40364;52.270;10.546;2024-02-16T07:48:10;100150.06;;;28.30;29.73
54455;BME280;40364;52.270;10.546;2024-02-16T07:50:37;100156.31;;;29.53;28.57
54455;BME280;40364;52.270;10.546;2024-02-16T07:53:03;100149.59;;;28.96;29.24
54455;BME280;40364;52.270;10.546;2024-02-16T07:55:30;100153.50;;;28.07;30.52
54455;BME280;40364;52.270;10.546;2024-02-16T07:57:57;100152.94;;;27.72;30.63
54455;BME280;40364;52.270;10.546;2024-02-16T08:00:25;100153.50;;;28.16;30.88
54455;BME280;40364;52.270;10.546;2024-02-16T08:02:53;100161.56;;;26.97;31.89
54455;BME280;40364;52.270;10.546;2024-02-16T08:05:19;100160.84;;;26.49;32.65
54455;BME280;40364;52.270;10.546;2024-02-16T08:07:47;100156.38;;;27.36;31.85
54455;BME280;40364;52.270;10.546;2024-02-16T08:10:18;100146.94;;;27.48;31.09
54455;BME280;40364;52.270;10.546;2024-02-16T08:12:47;100147.97;;;27.63;30.63
54455;BME280;40364;52.270;10.546;2024-02-16T08:15:14;100156.78;;;27.87;30.82
54455;BME280;40364;52.270;10.546;2024-02-16T08:17:42;100162.09;;;27.36;31.87
54455;BME280;40364;52.270;10.546;2024-02-16T08:20:09;100148.94;;;27.38;32.14
54455;BME280;40364;52.270;10.546;2024-02-16T08:22:36;100163.44;;;27.44;31.79
54455;BME280;40364;52.270;10.546;2024-02-16T08:25:03;100159.94;;;28.84;29.87
54455;BME280;40364;52.270;10.546;2024-02-16T08:27:30;100157.06;;;28.29;29.70
54455;BME280;40364;52.270;10.546;2024-02-16T08:29:57;100160.56;;;30.00;28.18
54455;BME280;40364;52.270;10.546;2024-02-16T08:32:24;100166.41;;;30.77;27.08
54455;BME280;40364;52.270;10.546;2024-02-16T08:34:53;100166.75;;;30.55;27.68
54455;BME280;40364;52.270;10.546;2024-02-16T08:37:21;100164.09;;;29.62;28.66
54455;BME280;40364;52.270;10.546;2024-02-16T08:39:48;100160.00;;;27.58;31.67
54455;BME280;40364;52.270;10.546;2024-02-16T08:42:15;100159.75;;;28.24;30.36
54455;BME280;40364;52.270;10.546;2024-02-16T08:44:41;100169.66;;;28.59;30.20
54455;BME280;40364;52.270;10.546;2024-02-16T08:47:08;100164.53;;;30.02;28.30
54455;BME280;40364;52.270;10.546;2024-02-16T08:49:35;100172.19;;;28.39;30.59
54455;BME280;40364;52.270;10.546;2024-02-16T08:52:04;100167.38;;;29.18;29.84
54455;BME280;40364;52.270;10.546;2024-02-16T08:54:31;100165.81;;;27.14;31.92
54455;BME280;40364;52.270;10.546;2024-02-16T08:56:58;100163.13;;;28.59;30.27
54455;BME280;40364;52.270;10.546;2024-02-16T08:59:25;100168.84;;;28.49;30.30
54455;BME280;40364;52.270;10.546;2024-02-16T09:01:52;100176.53;;;26.32;33.38
54455;BME280;40364;52.270;10.546;2024-02-16T09:04:19;100175.13;;;27.37;32.14
54455;BME280;40364;52.270;10.546;2024-02-16T09:06:46;100187.09;;;29.43;29.39
54455;BME280;40364;52.270;10.546;2024-02-16T09:09:15;100172.31;;;30.11;28.90
54455;BME280;40364;52.270;10.546;2024-02-16T09:11:42;100176.47;;;28.34;30.92
54455;BME280;40364;52.270;10.546;2024-02-16T09:14:09;100168.28;;;29.85;28.71
54455;BME280;40364;52.270;10.546;2024-02-16T09:16:35;100168.16;;;27.38;31.70
54455;BME280;40364;52.270;10.546;2024-02-16T09:19:02;100174.16;;;29.57;29.08
54455;BME280;40364;52.270;10.546;2024-02-16T09:21:28;100168.47;;;30.14;28.24
54455;BME280;40364;52.270;10.546;2024-02-16T09:23:55;100167.22;;;29.12;29.16
54455;BME280;40364;52.270;10.546;2024-02-16T09:26:27;100161.56;;;30.83;27.99
54455;BME280;40364;52.270;10.546;2024-02-16T09:28:56;100172.59;;;30.61;28.28
54455;BME280;40364;52.270;10.546;2024-02-16T09:31:23;100173.59;;;28.25;31.05
54455;BME280;40364;52.270;10.546;2024-02-16T09:33:50;100178.22;;;27.82;31.87
54455;BME280;40364;52.270;10.546;2024-02-16T09:36:17;100186.16;;;26.13;33.80
54455;BME280;40364;52.270;10.546;2024-02-16T09:38:44;100181.28;;;28.92;30.69
54455;BME280;40364;52.270;10.546;2024-02-16T09:41:10;100179.56;;;26.85;33.11
54455;BME280;40364;52.270;10.546;2024-02-16T09:43:38;100182.06;;;28.38;32.05
54455;BME280;40364;52.270;10.546;2024-02-16T09:46:05;100188.94;;;27.60;32.44
54455;BME280;40364;52.270;10.546;2024-02-16T09:48:32;100188.59;;;27.27;32.87
54455;BME280;40364;52.270;10.546;2024-02-16T09:51:00;100187.56;;;27.43;33.02
54455;BME280;40364;52.270;10.546;2024-02-16T09:53:28;100187.78;;;27.79;32.47
54455;BME280;40364;52.270;10.546;2024-02-16T09:55:55;100194.22;;;27.40;32.84
54455;BME280;40364;52.270;10.546;2024-02-16T09:58:22;100199.06;;;26.65;33.84
54455;BME280;40364;52.270;10.546;2024-02-16T10:00:51;100190.81;;;28.80;31.13
54455;BME280;40364;52.270;10.546;2024-02-16T10:03:22;100197.06;;;28.88;31.37
54455;BME280;40364;52.270;10.546;2024-02-16T10:05:50;100188.19;;;27.69;32.75
54455;BME280;40364;52.270;10.546;2024-02-16T10:08:16;100194.22;;;28.20;31.31
54455;BME280;40364;52.270;10.546;2024-02-16T10:10:43;100199.56;;;27.91;31.94
54455;BME280;40364;52.270;10.546;2024-02-16T10:13:10;100195.56;;;28.46;30.99
54455;BME280;40364;52.270;10.546;2024-02-16T10:15:37;100206.22;;;29.46;29.92
54455;BME280;40364;52.270;10.546;2024-02-16T10:18:05;100199.44;;;29.68;29.99
54455;BME280;40364;52.270;10.546;2024-02-16T10:20:33;100196.88;;;29.09;30.57
54455;BME280;40364;52.270;10.546;2024-02-16T10:23:07;100202.63;;;30.12;29.71
54455;BME280;40364;52.270;10.546;2024-02-16T10:25:34;100212.16;;;29.25;30.60
54455;BME280;40364;52.270;10.546;2024-02-16T10:28:04;100216.00;;;29.03;31.13
54455;BME280;40364;52.270;10.546;2024-02-16T10:30:35;100208.00;;;30.19;29.64
54455;BME280;40364;52.270;10.546;2024-02-16T10:33:04;100217.03;;;29.61;30.27
54455;BME280;40364;52.270;10.546;2024-02-16T10:35:32;100220.69;;;29.61;30.17
54455;BME280;40364;52.270;10.546;2024-02-16T10:38:01;100231.75;;;31.59;27.77
54455;BME280;40364;52.270;10.546;2024-02-16T10:40:31;100235.25;;;30.57;28.87
54455;BME280;40364;52.270;10.546;2024-02-16T10:43:00;100235.88;;;29.16;31.29
54455;BME280;40364;52.270;10.546;2024-02-16T10:45:33;100242.00;;;31.75;27.58
54455;BME280;40364;52.270;10.546;2024-02-16T10:48:00;100233.16;;;27.15;33.06
54455;BME280;40364;52.270;10.546;2024-02-16T10:50:28;100234.09;;;28.45;31.84
54455;BME280;40364;52.270;10.546;2024-02-16T10:52:55;100229.00;;;29.50;30.53
54455;BME280;40364;52.270;10.546;2024-02-16T10:55:24;100214.81;;;30.93;28.67
54455;BME280;40364;52.270;10.546;2024-02-16T10:57:50;100210.56;;;28.41;31.28
54455;BME280;40364;52.270;10.546;2024-02-16T11:00:21;100203.72;;;29.72;29.69
54455;BME280;40364;52.270;10.546;2024-02-16T11:02:52;100208.72;;;30.05;29.74
54455;BME280;40364;52.270;10.546;2024-02-16T11:05:33;100213.44;;;29.75;29.84
54455;BME280;40364;52.270;10.546;2024-02-16T11:08:00;100211.88;;;28.86;31.57
54455;BME280;40364;52.270;10.546;2024-02-16T11:10:27;100198.72;;;29.91;29.60
54455;BME280;40364;52.270;10.546;2024-02-16T11:12:54;100200.84;;;29.81;29.41
54455;BME280;40364;52.270;10.546;2024-02-16T11:15:27;100204.25;;;31.88;27.41
54455;BME280;40364;52.270;10.546;2024-02-16T11:17:56;100203.66;;;32.33;26.75
54455;BME280;40364;52.270;10.546;2024-02-16T11:20:24;100215.31;;;31.45;28.52
54455;BME280;40364;52.270;10.546;2024-02-16T11:22:53;100215.66;;;30.46;30.78
54455;BME280;40364;52.270;10.546;2024-02-16T11:25:30;100211.75;;;33.16;27.69
54455;BME280;40364;52.270;10.546;2024-02-16T11:27:58;100207.91;;;32.78;27.55
54455;BME280;40364;52.270;10.546;2024-02-16T11:30:25;100208.28;;;33.32;27.37
54455;BME280;40364;52.270;10.546;2024-02-16T11:32:51;100221.94;;;30.83;28.78
54455;BME280;40364;52.270;10.546;2024-02-16T11:35:18;100217.69;;;31.46;28.65
54455;BME280;40364;52.270;10.546;2024-02-16T11:37:45;100203.06;;;30.67;29.41
54455;BME280;40364;52.270;10.546;2024-02-16T11:40:14;100211.25;;;30.98;29.12
54455;BME280;40364;52.270;10.546;2024-02-16T11:42:40;100208.69;;;31.00;28.92
54455;BME280;40364;52.270;10.546;2024-02-16T11:45:10;100211.69;;;31.06;28.60
54455;BME280;40364;52.270;10.546;2024-02-16T11:47:38;100210.81;;;30.76;29.51
54455;BME280;40364;52.270;10.546;2024-02-16T11:50:07;100204.91;;;33.39;26.03
54455;BME280;40364;52.270;10.546;2024-02-16T11:52:36;100208.78;;;29.87;29.54
54455;BME280;40364;52.270;10.546;2024-02-16T11:55:04;100203.59;;;30.09;29.47
54455;BME280;40364;52.270;10.546;2024-02-16T11:57:35;100206.41;;;29.85;30.19
54455;BME280;40364;52.270;10.546;2024-02-16T12:00:03;100211.63;;;29.96;30.41
54455;BME280;40364;52.270;10.546;2024-02-16T12:02:34;100201.25;;;29.56;31.08
54455;BME280;40364;52.270;10.546;2024-02-16T12:05:01;100191.59;;;27.55;33.71
54455;BME280;40364;52.270;10.546;2024-02-16T12:07:28;100193.59;;;28.16;32.77
54455;BME280;40364;52.270;10.546;2024-02-16T12:09:56;100201.09;;;30.49;29.84
54455;BME280;40364;52.270;10.546;2024-02-16T12:12:27;100196.50;;;29.44;31.46
54455;BME280;40364;52.270;10.546;2024-02-16T12:14:55;100194.97;;;28.88;31.69
54455;BME280;40364;52.270;10.546;2024-02-16T12:17:22;100193.00;;;28.21;32.40
54455;BME280;40364;52.270;10.546;2024-02-16T12:19:50;100182.84;;;28.29;32.79
54455;BME280;40364;52.270;10.546;2024-02-16T12:22:17;100184.41;;;29.82;30.69
54455;BME280;40364;52.270;10.546;2024-02-16T12:24:45;100181.41;;;27.75;33.14
54455;BME280;40364;52.270;10.546;2024-02-16T12:27:12;100182.78;;;30.23;29.80
54455;BME280;40364;52.270;10.546;2024-02-16T12:29:39;100188.00;;;30.72;29.31
54455;BME280;40364;52.270;10.546;2024-02-16T12:32:07;100189.22;;;28.61;32.33
54455;BME280;40364;52.270;10.546;2024-02-16T12:34:35;100185.06;;;30.96;28.47
54455;BME280;40364;52.270;10.546;2024-02-16T12:37:04;100190.44;;;33.65;25.70
54455;BME280;40364;52.270;10.546;2024-02-16T12:39:32;100200.31;;;31.41;27.79
54455;BME280;40364;52.270;10.546;2024-02-16T12:41:59;100203.59;;;33.14;25.89
54455;BME280;40364;52.270;10.546;2024-02-16T12:44:29;100211.63;;;29.96;29.57
54455;BME280;40364;52.270;10.546;2024-02-16T12:46:56;100218.56;;;29.01;31.66
54455;BME280;40364;52.270;10.546;2024-02-16T12:49:24;100215.25;;;30.05;30.88
54455;BME280;40364;52.270;10.546;2024-02-16T12:51:51;100218.84;;;29.12;31.73